| time (UTC) | temp F | wind direction | speed MPH | gust MPH | rain 1hr in | rain 24hr in | rain mn in | humidity % | barometer mb |
| 20260904144004 | 75 | 340 | 2.0 | 3.0 | 0.00 | 0.19 | 0.00 | 78 | 1015.4 |
| 20260904143005 | 76 | 273 | 1.0 | 4.0 | 0.00 | 0.19 | 0.00 | 78 | 1015.3 |
| 20260904142005 | 75 | 318 | 2.0 | 6.0 | 0.00 | 0.19 | 0.00 | 77 | 1015.2 |
| 20260904141006 | 74 | 250 | 6.0 | 9.0 | 0.00 | 0.19 | 0.00 | 79 | 1015.0 |
| 20260904140000 | 76 | 340 | 3.0 | 6.0 | 0.00 | 0.19 | 0.00 | 79 | 1014.8 |
| 20260904135002 | 75 | 318 | 1.0 | 3.0 | 0.00 | 0.19 | 0.00 | 83 | 1014.8 |
| 20260904134003 | 74 | 295 | 2.0 | 4.0 | 0.00 | 0.19 | 0.00 | 86 | 1014.9 |
| 20260904133004 | 73 | 250 | 1.0 | 3.0 | 0.00 | 0.19 | 0.00 | 89 | 1014.9 |
| 20260904132005 | 72 | 228 | 4.0 | 8.0 | 0.00 | 0.19 | 0.00 | 89 | 1015.1 |
| 20260904131006 | 72 | 228 | 2.0 | 4.0 | 0.00 | 0.19 | 0.00 | 91 | 1015.3 |
| 20260904130006 | 71 | 250 | 1.0 | 3.0 | 0.00 | 0.19 | 0.00 | 92 | 1015.4 |
| 20260904125001 | 71 | 273 | 4.0 | 7.0 | 0.00 | 0.19 | 0.00 | 91 | 1015.5 |
| 20260904124002 | 71 | 273 | 1.0 | 5.0 | 0.00 | 0.19 | 0.00 | 92 | 1015.6 |
| 20260904123004 | 72 | 273 | 2.0 | 5.0 | 0.00 | 0.19 | 0.00 | 92 | 1015.6 |
| 20260904122005 | 72 | 250 | 1.0 | 3.0 | 0.00 | 0.19 | 0.00 | 94 | 1015.6 |
| 20260904121005 | 71 | 250 | 2.0 | 3.0 | 0.00 | 0.19 | 0.00 | 96 | 1015.6 |
| 20260904120006 | 70 | 228 | 1.0 | 3.0 | 0.00 | 0.19 | 0.00 | 97 | 1015.3 |
| 20260904115001 | 68 | 228 | 1.0 | 2.0 | 0.00 | 0.19 | 0.00 | 98 | 1015.2 |
| 20260904114002 | 68 | 228 | 2.0 | 3.0 | 0.00 | 0.19 | 0.00 | 98 | 1015.3 |
| 20260904113002 | 68 | 250 | 2.0 | 3.0 | 0.00 | 0.19 | 0.00 | 98 | 1015.4 |
| 20260904112003 | 67 | 228 | 3.0 | 4.0 | 0.00 | 0.19 | 0.00 | 98 | 1015.1 |
| 20260904111004 | 67 | 160 | 2.0 | 4.0 | 0.00 | 0.19 | 0.00 | 98 | 1015.1 |
| 20260904110005 | 67 | 228 | 2.0 | 3.0 | 0.00 | 0.19 | 0.00 | 98 | 1015.0 |
| 20260904105006 | 67 | 228 | 2.0 | 4.0 | 0.00 | 0.19 | 0.00 | 98 | 1014.9 |
| 20260904104001 | 67 | 228 | 1.0 | 3.0 | 0.00 | 0.19 | 0.00 | 98 | 1014.9 |
| 20260904103002 | 67 | 205 | 2.0 | 3.0 | 0.00 | 0.19 | 0.00 | 98 | 1014.8 |
| 20260904101002 | 67 | 205 | 2.0 | 3.0 | 0.00 | 0.19 | 0.00 | 98 | 1014.8 |
| 20260904100003 | 67 | 228 | 2.0 | 3.0 | 0.00 | 0.19 | 0.00 | 98 | 1014.9 |
| 20260904094003 | 67 | 228 | 2.0 | 3.0 | 0.00 | 0.19 | 0.00 | 98 | 1014.9 |
| 20260904093004 | 67 | 205 | 3.0 | 4.0 | 0.00 | 0.19 | 0.00 | 98 | 1015.0 |
| 20260904092005 | 67 | 205 | 2.0 | 3.0 | 0.00 | 0.19 | 0.00 | 98 | 1014.8 |
| 20260904085003 | 68 | 250 | 0.0 | 1.0 | 0.00 | 0.19 | 0.00 | 98 | 1014.9 |
| 20260904084005 | 68 | 250 | 1.0 | 3.0 | 0.00 | 0.19 | 0.00 | 98 | 1015.0 |
| 20260904083005 | 68 | 250 | 3.0 | 4.0 | 0.00 | 0.19 | 0.00 | 98 | 1015.0 |
| 20260904082005 | 68 | 273 | 1.0 | 3.0 | 0.00 | 0.19 | 0.00 | 98 | 1014.9 |
| 20260904081007 | 68 | 250 | 3.0 | 5.0 | 0.00 | 0.19 | 0.00 | 98 | 1014.9 |
| 20260904080002 | 68 | 160 | 2.0 | 3.0 | 0.00 | 0.19 | 0.00 | 98 | 1014.9 |
| 20260904075003 | 68 | 273 | 2.0 | 4.0 | 0.00 | 0.19 | 0.00 | 98 | 1014.8 |
| 20260904073003 | 68 | 250 | 1.0 | 3.0 | 0.00 | 0.19 | 0.00 | 98 | 1014.8 |
| 20260904072004 | 68 | 273 | 1.0 | 3.0 | 0.00 | 0.20 | 0.00 | 98 | 1014.8 |
| 20260904071006 | 68 | 295 | 3.0 | 4.0 | 0.00 | 0.20 | 0.00 | 98 | 1014.8 |
| 20260904070005 | 68 | 273 | 6.0 | 7.0 | 0.00 | 0.20 | 0.00 | 98 | 1014.8 |
| 20260904065006 | 68 | 250 | 5.0 | 7.0 | 0.00 | 0.20 | 0.00 | 98 | 1014.9 |
| 20260904064001 | 68 | 228 | 5.0 | 6.0 | 0.00 | 0.21 | 0.00 | 98 | 1014.8 |
| 20260904063003 | 68 | 273 | 4.0 | 5.0 | 0.00 | 0.22 | 0.00 | 98 | 1014.9 |
| 20260904062004 | 68 | 250 | 4.0 | 6.0 | 0.00 | 0.23 | 0.00 | 98 | 1014.8 |
| 20260904061005 | 67 | 295 | 0.0 | 1.0 | 0.00 | 0.24 | 0.00 | 98 | 1014.8 |
| 20260904060005 | 68 | 273 | 1.0 | 3.0 | 0.00 | 0.24 | 0.00 | 98 | 1014.7 |
| 20260904055026 | 68 | 250 | 2.0 | 4.0 | 0.00 | 0.24 | 0.00 | 98 | 1014.6 |
| 20260904054001 | 68 | 228 | 4.0 | 4.0 | 0.00 | 0.25 | 0.00 | 98 | 1014.5 |
| 20260904053003 | 68 | 228 | 4.0 | 5.0 | 0.00 | 0.25 | 0.00 | 98 | 1014.5 |
| 20260904052003 | 68 | 250 | 2.0 | 3.0 | 0.00 | 0.25 | 0.00 | 98 | 1014.6 |
| 20260904051004 | 68 | 228 | 3.0 | 5.0 | 0.00 | 0.25 | 0.00 | 98 | 1014.7 |
| 20260904045004 | 69 | 228 | 3.0 | 4.0 | 0.00 | 0.25 | 0.00 | 97 | 1014.6 |
| 20260904044005 | 69 | 250 | 4.0 | 6.0 | 0.00 | 0.25 | 0.00 | 97 | 1014.8 |
| 20260904043007 | 69 | 250 | 4.0 | 6.0 | 0.00 | 0.26 | 0.00 | 97 | 1014.7 |
| 20260904042001 | 69 | 273 | 3.0 | 4.0 | 0.00 | 0.32 | 0.00 | 97 | 1014.6 |
| 20260904040007 | 69 | 205 | 1.0 | 2.0 | 0.00 | 0.57 | 0.00 | 97 | 1014.4 |
| 20260904035001 | 69 | 250 | 3.0 | 4.0 | 0.00 | 0.57 | 0.57 | 97 | 1014.6 |
| 20260904034003 | 69 | 228 | 3.0 | 4.0 | 0.00 | 0.57 | 0.57 | 97 | 1014.7 |
| 20260904033004 | 69 | 250 | 1.0 | 2.0 | 0.00 | 0.57 | 0.57 | 97 | 1014.5 |
| 20260904032005 | 69 | 228 | 0.0 | 1.0 | 0.00 | 0.57 | 0.57 | 97 | 1014.5 |
| 20260904031006 | 69 | 273 | 2.0 | 4.0 | 0.00 | 0.58 | 0.57 | 97 | 1014.5 |
| 20260904030002 | 69 | 183 | 3.0 | 4.0 | 0.00 | 0.58 | 0.57 | 97 | 1014.3 |
| 20260904025003 | 69 | 205 | 3.0 | 4.0 | 0.00 | 0.61 | 0.57 | 96 | 1014.4 |
| 20260904024004 | 70 | 205 | 3.0 | 4.0 | 0.00 | 0.79 | 0.57 | 96 | 1014.5 |
| 20260904023005 | 70 | 228 | 3.0 | 4.0 | 0.00 | 1.11 | 0.57 | 96 | 1014.5 |
| 20260904022006 | 70 | 205 | 1.0 | 2.0 | 0.00 | 1.26 | 0.57 | 96 | 1014.4 |
| 20260904021001 | 70 | 250 | 3.0 | 3.0 | 0.00 | 1.27 | 0.57 | 96 | 1014.5 |
| 20260904020003 | 70 | 228 | 2.0 | 3.0 | 0.00 | 1.27 | 0.57 | 96 | 1014.4 |
| 20260904015003 | 70 | 273 | 2.0 | 3.0 | 0.00 | 1.27 | 0.57 | 96 | 1014.6 |
| 20260904014004 | 70 | 48 | 3.0 | 5.0 | 0.00 | 1.27 | 0.57 | 96 | 1014.8 |
| 20260904012005 | 70 | 228 | 1.0 | 3.0 | 0.00 | 1.27 | 0.57 | 95 | 1014.3 |
| 20260904011006 | 70 | 228 | 6.0 | 7.0 | 0.00 | 1.27 | 0.57 | 95 | 1013.7 |
| 20260904010007 | 70 | 250 | 8.0 | 13.0 | 0.00 | 1.27 | 0.57 | 95 | 1013.3 |
| 20260904004007 | 71 | 160 | 5.0 | 8.0 | 0.00 | 1.26 | 0.56 | 94 | 1013.3 |
| 20260904003001 | 71 | 228 | 10.0 | 14.0 | 0.00 | 1.25 | 0.55 | 94 | 1013.5 |
| 20260904002002 | 71 | 228 | 11.0 | 14.0 | 0.00 | 1.23 | 0.53 | 94 | 1014.2 |
| 20260904001003 | 72 | 228 | 7.0 | 10.0 | 0.00 | 1.20 | 0.50 | 93 | 1014.7 |
| 20260904000004 | 72 | 273 | 9.0 | 11.0 | 0.00 | 1.17 | 0.47 | 92 | 1014.9 |
| 20260903235006 | 72 | 250 | 5.0 | 8.0 | 0.00 | 1.15 | 0.45 | 91 | 1014.6 |
| 20260903234006 | 73 | 250 | 5.0 | 7.0 | 0.00 | 1.12 | 0.42 | 89 | 1014.3 |
| 20260903233007 | 73 | 228 | 5.0 | 7.0 | 0.00 | 1.10 | 0.40 | 87 | 1014.3 |
| 20260903232002 | 74 | 250 | 7.0 | 11.0 | 0.00 | 1.08 | 0.38 | 84 | 1014.7 |
| 20260903231003 | 74 | 228 | 8.0 | 13.0 | 0.00 | 1.08 | 0.38 | 81 | 1014.9 |
| 20260903225003 | 77 | 273 | 4.0 | 9.0 | 0.00 | 1.08 | 0.38 | 76 | 1014.4 |
| 20260903224003 | 77 | 183 | 6.0 | 9.0 | 0.00 | 1.08 | 0.38 | 75 | 1014.4 |
| 20260903223004 | 78 | 228 | 7.0 | 10.0 | 0.00 | 1.08 | 0.38 | 82 | 1014.4 |
| 20260903222005 | 79 | 340 | 2.0 | 3.0 | 0.00 | 1.08 | 0.38 | 84 | 1014.4 |
| 20260903221006 | 79 | 273 | 1.0 | 3.0 | 0.00 | 1.08 | 0.38 | 84 | 1014.1 |
| 20260903220007 | 79 | 250 | 6.0 | 7.0 | 0.00 | 1.08 | 0.38 | 82 | 1014.2 |
| 20260903215002 | 80 | 318 | 2.0 | 4.0 | 0.00 | 1.08 | 0.38 | 81 | 1014.0 |
| 20260903214003 | 80 | 228 | 2.0 | 5.0 | 0.00 | 1.08 | 0.38 | 80 | 1013.8 |
| 20260903213004 | 81 | 273 | 2.0 | 6.0 | 0.00 | 1.08 | 0.38 | 80 | 1013.7 |
| 20260903212005 | 81 | 318 | 1.0 | 4.0 | 0.00 | 1.08 | 0.38 | 79 | 1013.3 |
| 20260903211006 | 81 | 340 | 3.0 | 4.0 | 0.00 | 1.08 | 0.38 | 79 | 1013.2 |
| 20260903210001 | 81 | 228 | 1.0 | 3.0 | 0.00 | 1.08 | 0.38 | 78 | 1013.2 |
| 20260903204002 | 82 | 318 | 1.0 | 2.0 | 0.00 | 1.08 | 0.38 | 76 | 1013.5 |
| 20260903203002 | 82 | 273 | 1.0 | 2.0 | 0.00 | 1.08 | 0.38 | 76 | 1013.5 |
| 20260903202003 | 82 | 318 | 1.0 | 3.0 | 0.00 | 1.08 | 0.38 | 76 | 1013.4 |
| 20260903200003 | 82 | 318 | 2.0 | 5.0 | 0.00 | 1.08 | 0.38 | 74 | 1013.5 |
| 20260903195005 | 82 | 48 | 2.0 | 4.0 | 0.00 | 1.08 | 0.38 | 73 | 1013.6 |
| 20260903194005 | 83 | 273 | 3.0 | 7.0 | 0.00 | 1.08 | 0.38 | 72 | 1013.9 |
| 20260903191005 | 84 | 228 | 6.0 | 9.0 | 0.00 | 1.08 | 0.38 | 66 | 1014.0 |
| 20260903190006 | 83 | 205 | 5.0 | 7.0 | 0.00 | 1.08 | 0.38 | 68 | 1014.2 |
| 20260903185007 | 84 | 228 | 9.0 | 12.0 | 0.00 | 1.08 | 0.38 | 66 | 1014.2 |
| 20260903184002 | 84 | 250 | 6.0 | 10.0 | 0.00 | 1.08 | 0.38 | 67 | 1014.2 |
| 20260903182007 | 84 | 3 | 6.0 | 11.0 | 0.00 | 1.08 | 0.38 | 66 | 1014.2 |
| 20260903181002 | 84 | 273 | 6.0 | 12.0 | 0.00 | 1.08 | 0.38 | 65 | 1014.2 |
| 20260903180003 | 83 | 273 | 6.0 | 10.0 | 0.00 | 1.08 | 0.38 | 66 | 1014.2 |
| 20260903175004 | 83 | 250 | 11.0 | 15.0 | 0.00 | 1.08 | 0.38 | 66 | 1014.2 |
| 20260903174005 | 84 | 250 | 5.0 | 10.0 | 0.00 | 1.08 | 0.38 | 65 | 1014.2 |
| 20260903172005 | 85 | 318 | 4.0 | 8.0 | 0.00 | 1.08 | 0.38 | 65 | 1014.4 |
| 20260903171006 | 84 | 273 | 6.0 | 10.0 | 0.00 | 1.08 | 0.38 | 65 | 1014.3 |
| 20260903170007 | 85 | 295 | 9.0 | 14.0 | 0.00 | 1.08 | 0.38 | 64 | 1014.3 |
| 20260903165007 | 85 | 273 | 8.0 | 16.0 | 0.00 | 1.08 | 0.38 | 66 | 1014.4 |
| 20260903164002 | 83 | 228 | 12.0 | 16.0 | 0.00 | 1.08 | 0.38 | 67 | 1014.4 |
| 20260903163003 | 82 | 273 | 3.0 | 7.0 | 0.00 | 1.08 | 0.38 | 69 | 1014.4 |
| 20260903162004 | 82 | 228 | 11.0 | 16.0 | 0.00 | 1.08 | 0.38 | 68 | 1014.5 |
| 20260903160004 | 82 | 228 | 9.0 | 14.0 | 0.00 | 1.08 | 0.38 | 69 | 1014.7 |
| 20260903155005 | 82 | 228 | 6.0 | 10.0 | 0.00 | 1.08 | 0.38 | 68 | 1014.8 |
| 20260903154006 | 81 | 295 | 9.0 | 16.0 | 0.00 | 1.08 | 0.38 | 68 | 1014.8 |
| 20260903153007 | 80 | 228 | 10.0 | 13.0 | 0.00 | 1.08 | 0.38 | 69 | 1015.0 |
| 20260903152007 | 80 | 250 | 8.0 | 11.0 | 0.00 | 1.08 | 0.38 | 70 | 1014.9 |
| 20260903151007 | 79 | 228 | 8.0 | 11.0 | 0.00 | 1.09 | 0.38 | 71 | 1014.9 |
| 20260903150002 | 79 | 295 | 5.0 | 7.0 | 0.00 | 1.10 | 0.38 | 72 | 1014.9 |